createdAt,value
2022-11-21T10:31:00.546Z,64.90
2022-11-21T10:46:38.342Z,63.50
2022-11-21T10:55:57.032Z,63.10
2022-11-21T10:57:16.101Z,63.80
2022-11-21T10:58:42.420Z,63.50
2022-11-21T11:00:15.477Z,63.30
2022-11-21T11:01:24.602Z,63.10
2022-11-21T11:02:28.564Z,62.80
2022-11-21T11:03:32.846Z,63.00
2022-11-21T11:04:45.685Z,63.20
2022-11-21T11:05:57.777Z,62.60
2022-11-21T11:07:22.609Z,62.80
2022-11-21T11:08:27.706Z,61.50
2022-11-21T11:09:33.139Z,61.30
2022-11-21T11:10:38.409Z,61.60
2022-11-21T11:11:42.221Z,61.60
2022-11-21T11:13:30.854Z,61.70
2022-11-21T11:14:35.693Z,60.70
2022-11-21T11:15:54.933Z,61.80
2022-11-21T11:16:58.333Z,62.00
2022-11-21T11:18:09.325Z,61.90
2022-11-21T11:19:32.694Z,61.10
2022-11-21T11:20:42.185Z,61.20
2022-11-21T11:21:46.969Z,60.80
2022-11-21T11:22:49.182Z,61.10
2022-11-21T11:23:54.409Z,61.50
2022-11-21T11:25:00.436Z,61.90
2022-11-21T11:26:04.167Z,62.20
2022-11-21T11:27:07.314Z,63.00
2022-11-21T11:28:13.394Z,62.50
2022-11-21T11:29:18.524Z,62.90
2022-11-21T11:30:21.364Z,63.20
2022-11-21T11:31:24.579Z,63.50
2022-11-21T11:32:27.819Z,63.80
2022-11-21T11:33:33.377Z,63.30
2022-11-21T11:34:42.252Z,63.40
2022-11-21T11:35:44.484Z,63.40
2022-11-21T11:36:56.689Z,63.90
2022-11-21T11:38:03.567Z,64.50
2022-11-21T11:39:20.021Z,64.20
2022-11-21T11:40:31.499Z,63.10
2022-11-21T11:42:16.627Z,63.30
2022-11-21T11:43:55.647Z,63.30
2022-11-21T11:45:34.463Z,63.40
2022-11-21T11:47:08.433Z,62.40
2022-11-21T11:48:12.261Z,62.60
2022-11-21T11:49:23.946Z,62.40
2022-11-21T11:50:32.916Z,62.60
2022-11-21T11:51:42.853Z,62.20
2022-11-21T11:53:00.963Z,62.70
2022-11-21T11:54:13.578Z,63.10
2022-11-21T11:55:21.980Z,63.10
2022-11-21T11:56:29.230Z,62.80
2022-11-21T11:57:35.701Z,63.00
2022-11-21T11:58:47.176Z,63.00
2022-11-21T11:59:59.997Z,63.30
2022-11-21T12:01:09.125Z,63.00
2022-11-21T12:02:23.039Z,62.90
2022-11-21T12:03:35.898Z,63.00
2022-11-21T12:04:47.142Z,63.10
2022-11-21T12:06:04.669Z,63.20
2022-11-21T12:08:52.897Z,63.60
2022-11-21T12:10:05.458Z,63.40
2022-11-21T12:11:42.231Z,62.90
2022-11-21T12:12:51.113Z,62.80
2022-11-21T12:13:58.071Z,62.60
2022-11-21T12:15:32.792Z,62.40
2022-11-21T12:16:40.953Z,61.90
2022-11-21T12:17:53.949Z,61.00
2022-11-21T12:19:02.385Z,60.90
2022-11-21T12:20:19.970Z,61.20
2022-11-21T12:21:24.490Z,61.50
2022-11-21T12:22:26.848Z,61.20
2022-11-21T12:23:33.813Z,61.10
2022-11-21T12:24:42.570Z,60.20
2022-11-21T12:26:00.971Z,60.10
2022-11-21T12:27:21.190Z,59.20
2022-11-21T12:28:35.379Z,60.10
2022-11-21T12:29:59.684Z,60.30
2022-11-21T12:31:14.855Z,60.30
2022-11-21T12:32:37.347Z,60.30
2022-11-21T12:33:53.125Z,60.60
2022-11-21T12:35:21.435Z,60.80
2022-11-21T12:36:35.252Z,61.30
2022-11-21T12:38:10.765Z,61.50
2022-11-21T12:40:05.071Z,61.80
2022-11-21T12:41:46.855Z,62.10
2022-11-21T12:43:25.920Z,62.10
2022-11-21T12:46:55.529Z,61.90
2022-11-21T12:50:44.784Z,61.50
2022-11-21T12:52:28.038Z,61.80
2022-11-21T12:54:02.210Z,61.50
2022-11-21T12:55:35.113Z,61.70
2022-11-21T12:56:51.880Z,61.90
2022-11-21T12:58:12.539Z,61.80
2022-11-21T12:59:16.662Z,61.60
2022-11-21T13:00:31.716Z,61.50
2022-11-21T13:01:47.691Z,61.70
2022-11-21T13:03:29.143Z,61.90
2022-11-21T13:04:38.355Z,61.80
2022-11-21T13:05:47.733Z,61.50
2022-11-21T13:06:52.624Z,61.60
2022-11-21T13:08:02.524Z,61.70
2022-11-21T13:09:10.888Z,61.80
2022-11-21T13:10:16.954Z,61.90
2022-11-21T13:11:52.250Z,61.90
2022-11-21T13:13:09.769Z,62.10
2022-11-21T13:14:21.036Z,61.90
2022-11-21T13:15:34.134Z,61.30
2022-11-21T13:16:48.430Z,61.60
2022-11-21T13:17:58.804Z,61.50
2022-11-21T13:19:05.010Z,61.30
2022-11-21T13:20:21.480Z,61.20
2022-11-21T13:21:46.157Z,61.30
2022-11-21T13:22:58.068Z,61.50
2022-11-21T13:24:01.228Z,61.50
2022-11-21T13:25:10.681Z,61.40
2022-11-21T13:26:51.437Z,61.30
2022-11-21T13:27:55.370Z,60.80
2022-11-21T13:29:10.683Z,61.30
2022-11-21T13:30:26.039Z,61.70
2022-11-21T13:31:32.115Z,61.90
2022-11-21T13:34:38.249Z,62.40
2022-11-21T13:36:39.203Z,62.20
2022-11-21T13:38:29.581Z,62.60
2022-11-21T13:46:07.850Z,61.90
2022-11-21T13:47:58.224Z,62.30
2022-11-21T13:51:56.175Z,62.30
2022-11-21T13:58:15.138Z,62.20
2022-11-21T13:59:47.080Z,62.40
2022-11-21T14:01:13.701Z,62.80
2022-11-21T14:02:50.446Z,62.40
2022-11-21T14:04:37.371Z,62.60
2022-11-21T14:06:06.694Z,62.60
2022-11-21T14:07:26.216Z,62.80
2022-11-21T14:08:31.376Z,62.90
2022-11-21T14:09:38.614Z,62.60
2022-11-21T14:10:42.867Z,62.80
2022-11-21T14:11:50.113Z,63.10
2022-11-21T14:12:56.470Z,62.80
2022-11-21T14:13:58.725Z,63.10
2022-11-21T14:15:25.514Z,63.00
2022-11-21T14:16:38.627Z,63.20
2022-11-21T14:17:47.347Z,63.20
2022-11-21T14:18:50.289Z,63.10
2022-11-21T14:19:57.419Z,63.20
2022-11-21T14:21:02.839Z,63.30
2022-11-21T14:22:05.112Z,63.50
2022-11-21T14:23:18.768Z,63.50
2022-11-21T14:24:21.108Z,63.60
2022-11-21T14:25:29.891Z,63.40
2022-11-21T14:26:41.258Z,63.50
2022-11-21T14:27:49.770Z,63.60
2022-11-21T14:28:53.713Z,63.70
2022-11-21T14:29:56.090Z,63.80
2022-11-21T14:31:01.939Z,63.80
2022-11-21T14:32:06.213Z,63.90
2022-11-21T14:33:30.806Z,64.00
2022-11-21T14:34:34.630Z,63.90
2022-11-21T14:35:40.467Z,63.80
2022-11-21T14:36:44.471Z,63.80
2022-11-21T14:37:48.149Z,63.80
2022-11-21T14:39:20.922Z,63.60
2022-11-21T14:40:23.495Z,63.70
2022-11-21T14:41:31.263Z,63.70
2022-11-21T14:42:38.286Z,63.60
2022-11-21T14:43:40.587Z,63.60
2022-11-21T14:44:44.619Z,63.50
2022-11-21T14:45:49.967Z,63.40
2022-11-21T14:47:06.822Z,63.50
2022-11-21T14:48:14.567Z,63.60
2022-11-21T14:49:26.712Z,63.60
2022-11-21T14:50:37.440Z,63.60
2022-11-21T14:51:43.092Z,63.70
2022-11-21T14:52:47.128Z,63.70
2022-11-21T14:53:51.266Z,63.70
2022-11-21T14:55:28.424Z,63.50
2022-11-21T14:56:23.120Z,63.70
2022-11-21T14:57:29.680Z,63.80
2022-11-21T14:58:32.995Z,63.80
2022-11-21T14:59:40.919Z,63.80
2022-11-21T15:01:03.482Z,63.80
2022-11-21T15:02:14.087Z,63.90
2022-11-21T15:03:21.855Z,63.90
2022-11-21T15:04:32.382Z,64.00
2022-11-21T15:07:00.609Z,64.10
2022-11-21T15:10:26.899Z,64.30
2022-11-21T15:10:59.630Z,64.30
2022-11-21T15:12:09.441Z,64.50
2022-11-21T15:13:17.163Z,64.70
2022-11-21T15:14:29.428Z,64.80
2022-11-21T15:15:36.663Z,64.80
2022-11-21T15:16:39.411Z,64.90
2022-11-21T15:18:03.609Z,64.90
2022-11-21T15:19:12.165Z,64.90
2022-11-21T15:20:22.202Z,64.90
2022-11-21T15:21:26.702Z,64.80
2022-11-21T15:22:36.199Z,64.80
2022-11-21T15:23:43.128Z,64.70
2022-11-21T15:24:47.211Z,64.70
2022-11-21T15:25:49.440Z,64.70
2022-11-21T15:26:52.720Z,64.70
2022-11-21T15:28:10.288Z,64.70
2022-11-21T15:29:21.838Z,64.70
2022-11-21T15:30:29.020Z,64.60
2022-11-21T15:31:32.655Z,64.50
2022-11-21T15:32:35.080Z,64.40
2022-11-21T15:34:33.153Z,64.30
2022-11-21T15:35:50.691Z,64.40
2022-11-21T15:37:05.610Z,64.60
2022-11-21T15:38:21.231Z,64.60
2022-11-21T15:39:25.084Z,64.70
2022-11-21T15:40:27.772Z,64.80
2022-11-21T15:41:33.064Z,64.80
2022-11-21T15:42:37.591Z,64.80
2022-11-21T15:43:43.952Z,65.40
2022-11-21T15:45:00.473Z,64.90
2022-11-21T15:46:03.683Z,65.00
2022-11-21T15:47:09.577Z,64.90
2022-11-21T15:48:11.945Z,64.90
2022-11-21T15:49:33.782Z,64.90
2022-11-21T15:50:38.847Z,65.10
2022-11-21T15:52:06.226Z,65.10
2022-11-21T15:53:06.936Z,65.10
2022-11-21T15:54:17.842Z,65.10
2022-11-21T15:55:22.203Z,65.00
2022-11-21T15:56:25.458Z,64.90
2022-11-21T15:57:14.776Z,64.30
2022-11-21T15:57:28.733Z,64.80
2022-11-21T15:58:30.948Z,64.80
2022-11-21T15:59:36.717Z,64.70
2022-11-21T16:00:39.395Z,64.80
2022-11-21T16:01:42.963Z,64.70
2022-11-21T16:02:50.945Z,64.90
2022-11-21T16:03:56.859Z,64.90
2022-11-21T16:04:59.159Z,65.00
2022-11-21T16:06:03.858Z,65.00
2022-11-21T16:07:07.986Z,65.00
2022-11-21T16:08:11.289Z,65.10
2022-11-21T16:09:13.426Z,65.00
2022-11-21T16:10:25.892Z,65.00
2022-11-21T16:11:34.031Z,65.00
2022-11-21T16:12:36.354Z,65.00
2022-11-21T16:13:39.571Z,65.00
2022-11-21T16:14:42.841Z,65.40
2022-11-21T16:15:45.008Z,65.40
2022-11-21T16:16:48.168Z,65.30
2022-11-21T16:17:51.842Z,65.60
2022-11-21T16:18:56.188Z,65.70
2022-11-21T16:19:59.440Z,66.40
2022-11-21T16:21:08.905Z,65.90
2022-11-21T16:22:12.067Z,65.90
2022-11-21T16:23:15.283Z,65.90
2022-11-21T16:24:17.619Z,66.00
2022-11-21T16:25:20.968Z,66.20
2022-11-21T16:26:27.917Z,66.20
2022-11-21T16:27:33.460Z,66.30
2022-11-21T16:28:37.441Z,66.50
2022-11-21T16:29:40.707Z,66.50
2022-11-21T16:30:43.248Z,66.50
2022-11-21T16:31:46.514Z,66.50
2022-11-21T16:32:51.284Z,66.50
2022-11-21T16:33:54.482Z,66.70
2022-11-21T16:34:58.310Z,67.10
2022-11-21T16:36:01.477Z,67.10
2022-11-21T16:40:22.800Z,67.20
2022-11-21T16:50:44.337Z,67.00
2022-11-21T16:52:36.068Z,67.00
2022-11-21T16:58:14.301Z,67.20
2022-11-21T16:59:34.240Z,67.10
2022-11-21T17:00:54.461Z,67.00
2022-11-21T17:05:00.449Z,66.70
2022-11-21T17:06:09.014Z,66.70
2022-11-21T17:07:14.797Z,66.40
2022-11-21T17:08:18.235Z,66.40
2022-11-21T17:09:24.595Z,66.10
2022-11-21T17:10:33.836Z,66.10
2022-11-21T17:12:04.020Z,66.00
2022-11-21T17:13:33.674Z,65.90
2022-11-21T17:14:38.842Z,65.70
2022-11-21T17:15:47.071Z,65.60
2022-11-21T17:20:54.854Z,65.50
2022-11-21T17:22:31.176Z,65.60
2022-11-21T17:23:56.734Z,65.60
2022-11-21T17:25:01.068Z,65.60
2022-11-21T17:26:04.771Z,65.50
2022-11-21T17:27:30.514Z,65.50
2022-11-21T17:29:02.322Z,65.50
2022-11-21T17:30:26.280Z,65.50
2022-11-21T17:31:47.149Z,65.50
2022-11-21T17:33:11.647Z,65.40
2022-11-21T17:38:36.295Z,65.60
2022-11-21T17:40:02.886Z,65.50
2022-11-21T17:41:28.209Z,65.40
2022-11-21T17:42:33.026Z,65.80
2022-11-21T17:43:42.062Z,65.70
2022-11-21T17:44:47.075Z,65.60
2022-11-21T17:45:51.452Z,65.60
2022-11-21T17:46:54.920Z,65.50
2022-11-21T17:47:59.555Z,65.40
2022-11-21T17:49:06.683Z,65.40
2022-11-21T17:50:13.225Z,65.30
2022-11-21T17:51:20.227Z,65.30
2022-11-21T17:52:23.373Z,65.40
2022-11-21T17:53:30.632Z,65.40
2022-11-21T17:54:34.300Z,65.50
2022-11-21T17:55:38.658Z,65.80
2022-11-21T17:56:47.404Z,65.80
2022-11-21T17:58:01.425Z,65.90
2022-11-21T17:59:24.344Z,66.00
2022-11-21T18:00:40.316Z,65.80
2022-11-21T18:01:48.171Z,65.80
2022-11-21T18:05:26.317Z,65.90
2022-11-21T18:06:50.184Z,65.90
2022-11-21T18:12:51.489Z,66.00
2022-11-21T18:13:55.006Z,65.90
2022-11-21T18:14:58.226Z,65.90
2022-11-21T18:16:02.174Z,66.10
2022-11-21T18:17:05.400Z,66.20
2022-11-21T18:18:07.657Z,66.10
2022-11-21T18:19:14.909Z,66.20
2022-11-21T18:20:18.083Z,66.20
2022-11-21T18:21:23.878Z,66.20
2022-11-21T18:22:29.482Z,66.30
2022-11-21T18:23:33.579Z,66.20
2022-11-21T18:24:36.856Z,66.10
2022-11-21T18:25:39.841Z,66.10
2022-11-21T18:26:44.538Z,66.10
2022-11-21T18:27:54.062Z,66.10
2022-11-21T18:30:23.434Z,66.50
2022-11-21T18:31:31.111Z,66.50
2022-11-21T18:32:35.238Z,66.50
2022-11-21T18:33:39.372Z,66.30
2022-11-21T18:34:42.646Z,66.20
2022-11-21T18:35:44.855Z,66.20
2022-11-21T18:36:50.771Z,66.00
2022-11-21T18:37:53.417Z,66.00
2022-11-21T18:39:04.103Z,65.80
2022-11-21T18:40:12.257Z,65.80
2022-11-21T18:41:17.896Z,65.90
2022-11-21T18:42:22.522Z,66.10
2022-11-21T18:43:24.771Z,66.20
2022-11-21T18:44:27.917Z,66.20
2022-11-21T18:45:33.664Z,66.30
2022-11-21T18:46:38.793Z,66.40
2022-11-21T18:47:42.199Z,66.50
2022-11-21T18:49:02.071Z,66.60
2022-11-21T18:50:08.520Z,66.50
2022-11-21T18:51:13.070Z,66.80
2022-11-21T18:52:16.288Z,66.90
2022-11-21T18:53:18.641Z,66.90
2022-11-21T18:54:22.032Z,66.80
2022-11-21T18:55:27.970Z,66.80
2022-11-21T18:56:31.342Z,66.80
2022-11-21T18:57:35.919Z,66.80
2022-11-21T18:58:40.377Z,66.80
2022-11-21T18:59:51.974Z,66.80
2022-11-21T19:01:07.281Z,66.70
2022-11-21T19:02:12.389Z,66.80
2022-11-21T19:03:22.797Z,66.80
2022-11-21T19:04:33.609Z,66.80
2022-11-21T19:05:40.733Z,66.80
2022-11-21T19:06:58.627Z,66.80
2022-11-21T19:08:04.215Z,66.90
2022-11-21T19:09:28.074Z,66.90
2022-11-21T19:10:44.892Z,67.60
2022-11-21T19:11:58.451Z,66.90
2022-11-21T19:13:06.799Z,66.80
2022-11-21T19:14:19.582Z,67.10
2022-11-21T19:15:40.474Z,67.00
2022-11-21T19:18:15.636Z,66.90
2022-11-21T19:19:36.254Z,66.80
2022-11-21T19:20:40.795Z,66.80
2022-11-21T19:21:47.195Z,66.80
2022-11-21T19:22:53.342Z,66.60
2022-11-21T19:23:58.429Z,66.60
2022-11-21T19:25:04.099Z,66.60
2022-11-21T19:26:17.423Z,66.60
2022-11-21T19:27:25.423Z,66.50
2022-11-21T19:28:33.347Z,66.50
2022-11-21T19:29:40.448Z,66.50
2022-11-21T19:30:46.649Z,66.50
2022-11-21T19:31:49.959Z,66.50
2022-11-21T19:32:54.372Z,66.50
2022-11-21T19:33:57.823Z,66.50
2022-11-21T19:35:07.847Z,66.60
2022-11-21T19:36:18.419Z,66.60
2022-11-21T19:37:21.737Z,66.60
2022-11-21T19:38:23.963Z,66.50
2022-11-21T19:39:27.652Z,66.50
2022-11-21T19:40:50.072Z,66.50
2022-11-21T19:41:53.153Z,66.50
2022-11-21T19:42:56.389Z,66.40
2022-11-21T19:44:17.498Z,66.50
2022-11-21T19:45:26.291Z,66.60
2022-11-21T19:46:32.919Z,66.70
2022-11-21T19:47:56.880Z,66.60
2022-11-21T19:49:02.127Z,66.70
2022-11-21T19:50:07.666Z,66.70
2022-11-21T19:51:13.283Z,66.70
2022-11-21T19:52:30.494Z,66.90
2022-11-21T19:53:36.089Z,67.00
2022-11-21T19:54:39.422Z,67.50
2022-11-21T19:55:41.660Z,67.60
2022-11-21T19:56:45.013Z,67.60
2022-11-21T19:57:47.223Z,67.60
2022-11-21T19:58:51.497Z,67.60
2022-11-21T20:00:00.212Z,67.70
2022-11-21T20:01:11.683Z,67.70
2022-11-21T20:02:23.867Z,67.70
2022-11-21T20:03:26.060Z,67.60
2022-11-21T20:04:32.855Z,67.50
2022-11-21T20:05:38.448Z,67.50
2022-11-21T20:06:52.304Z,67.40
2022-11-21T20:08:18.144Z,67.40
2022-11-21T20:09:31.957Z,67.30
2022-11-21T20:10:41.613Z,67.30
2022-11-21T20:11:58.128Z,67.30
2022-11-21T20:13:13.226Z,67.30
2022-11-21T20:14:28.193Z,67.30
2022-11-21T20:16:00.208Z,67.30
2022-11-21T20:17:03.582Z,67.40
2022-11-21T20:18:06.032Z,67.40
2022-11-21T20:19:15.315Z,67.30
2022-11-21T20:20:24.269Z,67.30
2022-11-21T20:21:31.056Z,67.30
2022-11-21T20:22:34.878Z,67.20
2022-11-21T20:23:39.026Z,67.20
2022-11-21T20:24:45.099Z,67.20
2022-11-21T20:25:51.564Z,67.20
2022-11-21T20:26:54.794Z,67.20
2022-11-21T20:27:57.017Z,67.10
2022-11-21T20:29:00.847Z,67.10
2022-11-21T20:31:35.119Z,67.00
2022-11-21T20:32:43.085Z,66.90
2022-11-21T20:34:12.222Z,66.80
2022-11-21T20:35:23.663Z,66.70
2022-11-21T20:36:29.043Z,66.70
2022-11-21T20:37:35.086Z,66.70
2022-11-21T20:38:37.835Z,66.70
2022-11-21T20:39:43.967Z,66.60
2022-11-21T20:40:52.475Z,66.60
2022-11-21T20:41:55.785Z,66.60
2022-11-21T20:42:57.984Z,66.60
2022-11-21T20:44:53.294Z,66.60
2022-11-21T20:46:07.043Z,66.70
2022-11-21T20:46:50.697Z,66.60
2022-11-21T20:47:53.968Z,66.80
2022-11-21T20:48:57.925Z,66.70
2022-11-21T20:50:01.200Z,66.80
2022-11-21T20:52:09.593Z,66.80
2022-11-21T20:53:52.966Z,66.80
2022-11-21T20:54:56.469Z,66.70
2022-11-21T20:56:07.715Z,66.70
2022-11-21T20:57:15.109Z,66.70
2022-11-21T20:58:18.027Z,66.70
2022-11-21T20:59:21.309Z,66.70
2022-11-21T21:00:23.750Z,66.70
2022-11-21T21:01:27.787Z,66.80
2022-11-21T21:02:32.367Z,66.80
2022-11-21T21:03:35.831Z,66.80
2022-11-21T21:04:41.522Z,66.80
2022-11-21T21:05:51.018Z,66.80
2022-11-21T21:08:25.048Z,66.70
2022-11-21T21:09:29.361Z,66.80
2022-11-21T21:10:58.275Z,66.90
2022-11-21T21:12:00.919Z,66.90
2022-11-21T21:13:03.236Z,67.00
2022-11-21T21:14:08.898Z,67.50
2022-11-21T21:15:12.166Z,67.00
2022-11-21T21:16:16.580Z,67.00
2022-11-21T21:17:19.911Z,67.00
2022-11-21T21:18:24.717Z,67.00
2022-11-21T21:19:28.233Z,67.00
2022-11-21T21:20:36.333Z,67.00
2022-11-21T21:21:47.740Z,67.00
2022-11-21T21:22:50.117Z,67.00
2022-11-21T21:23:58.345Z,67.10
2022-11-21T21:25:03.944Z,67.00
2022-11-21T21:26:10.934Z,67.60
2022-11-21T21:27:14.270Z,67.00
2022-11-21T21:28:16.460Z,67.00
2022-11-21T21:29:22.126Z,66.90
2022-11-21T21:30:25.358Z,66.90
2022-11-21T21:31:29.295Z,67.00
2022-11-21T21:32:32.588Z,67.00
2022-11-21T21:33:36.192Z,67.00
2022-11-21T21:34:41.147Z,67.00
2022-11-21T21:35:45.293Z,66.90
2022-11-21T21:36:50.171Z,66.80
2022-11-21T21:38:22.327Z,66.80
2022-11-21T21:39:45.203Z,66.80
2022-11-21T21:41:09.347Z,66.80
2022-11-21T21:42:15.069Z,66.90
2022-11-21T21:43:20.089Z,66.90
2022-11-21T21:44:33.497Z,67.00
2022-11-21T21:45:41.481Z,66.90
2022-11-21T21:46:48.778Z,66.90
2022-11-21T21:50:15.647Z,66.80
2022-11-21T21:51:27.612Z,66.90
2022-11-21T21:52:36.052Z,66.90
2022-11-21T21:53:46.478Z,66.90
2022-11-21T21:55:01.698Z,66.90
2022-11-21T21:56:08.519Z,66.90
2022-11-21T21:57:11.709Z,67.10
2022-11-21T21:58:33.355Z,67.20
2022-11-21T21:59:37.985Z,67.20
2022-11-21T22:01:18.194Z,67.30
2022-11-21T22:02:25.934Z,67.20
2022-11-21T22:07:12.167Z,67.30
2022-11-21T22:08:17.166Z,67.20
2022-11-21T22:09:27.097Z,67.20
2022-11-21T22:11:48.647Z,67.10
2022-11-21T22:13:18.844Z,67.10
2022-11-21T22:14:28.865Z,67.00
2022-11-21T22:15:46.926Z,67.00
2022-11-21T22:17:01.715Z,67.00
2022-11-21T22:18:16.605Z,67.00
2022-11-21T22:19:32.125Z,67.00
2022-11-21T22:20:50.395Z,67.00
2022-11-21T22:25:19.436Z,67.20
2022-11-21T22:52:08.169Z,68.50
2022-11-21T22:53:18.749Z,68.60
2022-11-21T22:54:22.989Z,69.00
2022-11-21T22:55:27.014Z,68.40
2022-11-21T22:56:30.250Z,68.30
2022-11-21T22:57:33.907Z,68.30
2022-11-21T22:58:39.373Z,68.20
2022-11-21T22:59:44.737Z,68.30
2022-11-21T23:00:46.957Z,68.30
2022-11-21T23:01:50.206Z,68.30
2022-11-21T23:02:52.472Z,68.30
2022-11-21T23:03:56.924Z,68.40
2022-11-21T23:04:59.119Z,68.40
2022-11-21T23:06:03.552Z,68.40
2022-11-21T23:07:07.706Z,68.40
2022-11-21T23:08:11.040Z,68.40
2022-11-21T23:09:14.525Z,68.30
2022-11-21T23:10:17.685Z,68.40
2022-11-21T23:11:23.188Z,68.40
2022-11-21T23:12:26.502Z,68.30
2022-11-21T23:13:29.673Z,68.50
2022-11-21T23:14:31.939Z,68.60
2022-11-21T23:15:35.184Z,68.60
2022-11-21T23:16:38.524Z,68.80
2022-11-21T23:17:40.770Z,68.70
2022-11-21T23:18:44.183Z,68.80
2022-11-21T23:19:46.519Z,68.80
2022-11-21T23:20:49.686Z,68.80
2022-11-21T23:21:54.755Z,68.80
2022-11-21T23:22:58.408Z,68.70
2022-11-21T23:24:01.634Z,68.70
2022-11-21T23:25:05.186Z,68.60
2022-11-21T23:26:08.160Z,68.60
2022-11-21T23:27:11.361Z,68.50
2022-11-21T23:28:13.743Z,68.50
2022-11-21T23:29:16.974Z,68.40
2022-11-21T23:30:19.392Z,68.50
2022-11-21T23:31:22.610Z,68.50
2022-11-21T23:32:24.826Z,68.50
2022-11-21T23:33:28.104Z,68.60
2022-11-21T23:34:30.317Z,68.60
2022-11-21T23:35:34.820Z,68.70
2022-11-21T23:36:38.413Z,68.80
2022-11-21T23:55:11.104Z,68.60
